Gaz Unity — HOEJ — position and weather

sailwx.info

Track history (hours):
 
Tides and Currents Weather Stations Pressure Air Temp Water Temp Dewpoint Dewpoint Depression Visibility Wind Speed Wind Dir Waves Ship Positions

Gaz Unity

Last reported at 2016-Dec-29 17:33 UTC. Time now 2017-Jan-20 03:48 UTC.
Position N 35°34' E 014°26'.
Warning: this ship's position is 21 days out of date.

Length 228 m; draft 11.4 m.

Type: Ship (hazmat cat C). MMSI: 353956000.

Date/timePositionNaut miles runAvg speedWind from/ knotsBaromVisibWave heightAir tempDewpointWater temp
2016-Dec-29 17:33N 35°34' E 014°26'3 3.0
2016-Dec-29 16:32N 35°34' E 014°23'3 3.0
2016-Dec-29 15:33N 35°34' E 014°19'4 3.6
2016-Dec-29 14:33N 35°31' E 014°20'4 1.6
2016-Dec-29 12:07N 35°29' E 014°24'1 1.9
2016-Dec-29 11:31N 35°30' E 014°25'2 1.7
2016-Dec-29 10:30N 35°32' E 014°26'2 1.6
2016-Dec-29 09:33N 35°33' E 014°27'2 2.4
2016-Dec-29 08:31N 35°31' E 014°26'1 0.1
2016-Dec-28 23:11N 35°31' E 014°24'3 1.3
2016-Dec-28 21:08N 35°33' E 014°25'1 1.2
2016-Dec-28 20:33N 35°34' E 014°24'4 3.5
2016-Dec-28 19:24N 35°34' E 014°29'  
2016-Dec-22 18:28N 35°30' E 014°27'1 1.0
2016-Dec-22 17:33N 35°31' E 014°27'  
Track history (hours):
 
Tides and Currents Weather Stations Pressure Air Temp Water Temp Dewpoint Dewpoint Depression Visibility Wind Speed Wind Dir Waves Ship Positions

Gaz Unity

Last reported at 2016-Dec-29 17:33 UTC. Time now 2017-Jan-20 03:48 UTC.
Position N 35°34' E 014°26'.
Warning: this ship's position is 21 days out of date.

Length 228 m; draft 11.4 m.

Type: Ship (hazmat cat C). MMSI: 353956000.

Date/timePositionNaut miles runAvg speedWind from/ knotsBaromVisibWave heightAir tempDewpointWater temp
2016-Dec-29 17:33N 35°34' E 014°26'3 3.0
2016-Dec-29 16:32N 35°34' E 014°23'3 3.0
2016-Dec-29 15:33N 35°34' E 014°19'4 3.6
2016-Dec-29 14:33N 35°31' E 014°20'4 1.6
2016-Dec-29 12:07N 35°29' E 014°24'1 1.9
2016-Dec-29 11:31N 35°30' E 014°25'2 1.7
2016-Dec-29 10:30N 35°32' E 014°26'2 1.6
2016-Dec-29 09:33N 35°33' E 014°27'2 2.4
2016-Dec-29 08:31N 35°31' E 014°26'1 0.1
2016-Dec-28 23:11N 35°31' E 014°24'3 1.3
2016-Dec-28 21:08N 35°33' E 014°25'1 1.2
2016-Dec-28 20:33N 35°34' E 014°24'4 3.5
2016-Dec-28 19:24N 35°34' E 014°29'  
2016-Dec-22 18:28N 35°30' E 014°27'1 1.0
2016-Dec-22 17:33N 35°31' E 014°27'  

Dump ship's entire track history